createdAt,value
2023-03-06T00:00:27.941Z,91.27
2023-03-06T00:01:27.836Z,91.27
2023-03-06T00:02:27.841Z,91.16
2023-03-06T00:03:28.170Z,91.16
2023-03-06T00:04:27.860Z,91.27
2023-03-06T00:05:27.927Z,91.52
2023-03-06T00:06:27.898Z,91.62
2023-03-06T00:07:27.893Z,91.83
2023-03-06T00:08:27.916Z,92.14
2023-03-06T00:09:27.930Z,92.25
2023-03-06T00:10:27.946Z,92.25
2023-03-06T00:11:27.998Z,92.35
2023-03-06T00:12:27.980Z,92.46
2023-03-06T00:13:28.046Z,92.56
2023-03-06T00:14:28.011Z,92.25
2023-03-06T00:15:28.035Z,92.14
2023-03-06T00:16:28.193Z,92.14
2023-03-06T00:17:28.093Z,92.14
2023-03-06T00:18:28.082Z,92.04
2023-03-06T00:19:28.107Z,92.25
2023-03-06T00:20:28.119Z,92.40
2023-03-06T00:21:28.204Z,92.71
2023-03-06T00:22:28.311Z,92.71
2023-03-06T00:23:28.206Z,92.60
2023-03-06T00:24:28.197Z,92.40
2023-03-06T00:25:28.211Z,92.50
2023-03-06T00:26:28.262Z,92.50
2023-03-06T00:27:28.244Z,92.60
2023-03-06T00:28:28.305Z,92.60
2023-03-06T00:29:28.278Z,92.50
2023-03-06T00:30:28.297Z,92.46
2023-03-06T00:31:28.400Z,92.46
2023-03-06T00:32:28.417Z,92.66
2023-03-06T00:33:28.353Z,92.46
2023-03-06T00:34:28.364Z,92.35
2023-03-06T00:35:28.411Z,92.25
2023-03-06T00:36:28.472Z,92.14
2023-03-06T00:37:28.448Z,92.14
2023-03-06T00:38:28.428Z,91.94
2023-03-06T00:39:28.439Z,91.72
2023-03-06T00:40:28.441Z,91.83
2023-03-06T00:41:28.492Z,92.14
2023-03-06T00:42:28.480Z,92.56
2023-03-06T00:43:28.511Z,92.56
2023-03-06T00:44:28.530Z,92.71
2023-03-06T00:45:28.602Z,92.82
2023-03-06T00:46:28.591Z,92.66
2023-03-06T00:47:28.584Z,92.56
2023-03-06T00:48:28.603Z,92.46
2023-03-06T00:49:28.621Z,92.60
2023-03-06T00:50:28.636Z,92.71
2023-03-06T00:51:28.682Z,92.60
2023-03-06T00:52:28.681Z,92.60
2023-03-06T00:53:28.709Z,92.50
2023-03-06T00:54:28.712Z,92.71
2023-03-06T00:55:28.729Z,93.13
2023-03-06T00:56:28.764Z,93.13
2023-03-06T00:57:28.763Z,93.23
2023-03-06T00:58:28.789Z,93.02
2023-03-06T00:59:28.804Z,92.82
2023-03-06T01:00:28.812Z,92.82
2023-03-06T01:01:28.838Z,92.82
2023-03-06T01:02:28.887Z,92.71
2023-03-06T01:03:28.871Z,92.71
2023-03-06T01:04:28.901Z,92.71
2023-03-06T01:05:28.904Z,92.88
2023-03-06T01:06:28.924Z,92.82
2023-03-06T01:07:28.939Z,92.77
2023-03-06T01:08:28.955Z,92.66
2023-03-06T01:09:28.976Z,92.66
2023-03-06T01:10:29.004Z,92.77
2023-03-06T01:11:29.012Z,92.88
2023-03-06T01:12:29.032Z,92.98
2023-03-06T01:13:29.056Z,92.98
2023-03-06T01:14:29.064Z,92.98
2023-03-06T01:15:29.089Z,92.77
2023-03-06T01:16:29.180Z,92.56
2023-03-06T01:17:29.127Z,92.46
2023-03-06T01:18:29.125Z,92.35
2023-03-06T01:19:29.153Z,92.56
2023-03-06T01:20:29.171Z,92.77
2023-03-06T01:21:29.205Z,92.77
2023-03-06T01:22:29.198Z,92.77
2023-03-06T01:23:29.216Z,92.77
2023-03-06T01:24:29.235Z,92.88
2023-03-06T01:25:29.252Z,92.77
2023-03-06T01:26:29.280Z,92.77
2023-03-06T01:27:29.284Z,92.92
2023-03-06T01:28:29.290Z,92.88
2023-03-06T01:29:29.321Z,93.02
2023-03-06T01:30:29.328Z,93.13
2023-03-06T01:31:29.436Z,93.13
2023-03-06T01:32:29.406Z,93.02
2023-03-06T01:33:29.389Z,93.02
2023-03-06T01:34:29.403Z,93.23
2023-03-06T01:35:29.428Z,93.33
2023-03-06T01:36:29.472Z,93.44
2023-03-06T01:37:29.476Z,93.13
2023-03-06T01:38:29.471Z,93.02
2023-03-06T01:39:29.499Z,93.02
2023-03-06T01:40:29.516Z,93.02
2023-03-06T01:41:29.559Z,93.02
2023-03-06T01:42:31.950Z,93.13
2023-03-06T01:43:29.612Z,93.02
2023-03-06T01:44:29.597Z,93.02
2023-03-06T01:45:29.738Z,93.02
2023-03-06T01:46:29.645Z,93.13
2023-03-06T01:47:29.668Z,93.33
2023-03-06T01:48:29.658Z,93.40
2023-03-06T01:49:29.685Z,93.29
2023-03-06T01:50:29.700Z,93.29
2023-03-06T01:51:29.750Z,93.19
2023-03-06T01:52:29.740Z,93.02
2023-03-06T01:53:29.769Z,92.82
2023-03-06T01:54:29.778Z,92.71
2023-03-06T01:55:29.793Z,92.71
2023-03-06T01:56:29.828Z,92.60
2023-03-06T01:57:29.837Z,92.60
2023-03-06T01:58:29.846Z,92.82
2023-03-06T01:59:29.877Z,93.29
2023-03-06T02:00:29.894Z,93.61
2023-03-06T02:01:30.024Z,93.71
2023-03-06T02:02:29.973Z,93.71
2023-03-06T02:03:29.944Z,93.50
2023-03-06T02:04:29.965Z,93.46
2023-03-06T02:05:29.983Z,93.35
2023-03-06T02:06:30.003Z,93.25
2023-03-06T02:07:30.019Z,93.04
2023-03-06T02:08:30.042Z,92.63
2023-03-06T02:09:30.050Z,92.41
2023-03-06T02:10:30.064Z,92.21
2023-03-06T02:11:30.177Z,92.21
2023-03-06T02:12:30.103Z,91.79
2023-03-06T02:13:30.149Z,92.00
2023-03-06T02:14:30.147Z,91.89
2023-03-06T02:15:30.176Z,92.10
2023-03-06T02:16:30.274Z,92.21
2023-03-06T02:17:30.208Z,92.21
2023-03-06T02:18:30.228Z,92.52
2023-03-06T02:19:30.242Z,92.21
2023-03-06T02:20:30.257Z,92.21
2023-03-06T02:21:30.279Z,92.21
2023-03-06T02:22:30.296Z,92.00
2023-03-06T02:23:30.306Z,92.14
2023-03-06T02:24:30.320Z,92.04
2023-03-06T02:25:30.364Z,91.94
2023-03-06T02:26:30.397Z,91.94
2023-03-06T02:27:30.384Z,92.04
2023-03-06T02:28:30.400Z,92.25
2023-03-06T02:29:30.425Z,92.35
2023-03-06T02:30:30.439Z,92.46
2023-03-06T02:31:30.484Z,92.56
2023-03-06T02:32:30.529Z,92.56
2023-03-06T02:33:30.534Z,92.56
2023-03-06T02:34:30.515Z,92.77
2023-03-06T02:35:30.649Z,93.08
2023-03-06T02:36:30.561Z,93.19
2023-03-06T02:37:30.556Z,93.08
2023-03-06T02:38:30.573Z,92.98
2023-03-06T02:39:30.597Z,93.08
2023-03-06T02:40:30.607Z,93.19
2023-03-06T02:41:30.654Z,93.08
2023-03-06T02:42:30.656Z,93.19
2023-03-06T02:43:30.668Z,93.08
2023-03-06T02:44:30.677Z,92.98
2023-03-06T02:45:30.710Z,92.88
2023-03-06T02:46:30.826Z,92.66
2023-03-06T02:47:30.737Z,92.88
2023-03-06T02:48:30.743Z,92.77
2023-03-06T02:49:30.767Z,92.66
2023-03-06T02:50:30.781Z,92.66
2023-03-06T02:51:30.821Z,92.66
2023-03-06T02:52:30.813Z,92.66
2023-03-06T02:53:30.837Z,92.56
2023-03-06T02:54:30.846Z,92.56
2023-03-06T02:55:30.870Z,92.56
2023-03-06T02:56:30.910Z,92.56
2023-03-06T02:57:30.908Z,92.66
2023-03-06T02:58:30.917Z,92.56
2023-03-06T02:59:30.945Z,92.66
2023-03-06T03:00:30.966Z,92.66
2023-03-06T03:01:31.061Z,92.66
2023-03-06T03:02:30.987Z,92.88
2023-03-06T03:03:31.016Z,93.19
2023-03-06T03:04:31.050Z,93.61
2023-03-06T03:05:31.054Z,93.61
2023-03-06T03:06:31.079Z,93.61
2023-03-06T03:07:31.078Z,93.50
2023-03-06T03:08:31.087Z,93.50
2023-03-06T03:09:31.114Z,93.50
2023-03-06T03:10:31.125Z,93.40
2023-03-06T03:11:31.173Z,93.40
2023-03-06T03:12:31.158Z,93.19
2023-03-06T03:13:31.182Z,93.08
2023-03-06T03:14:31.197Z,93.29
2023-03-06T03:15:31.208Z,93.50
2023-03-06T03:16:31.240Z,93.50
2023-03-06T03:17:31.238Z,93.50
2023-03-06T03:18:31.249Z,93.50
2023-03-06T03:19:31.304Z,93.50
2023-03-06T03:20:31.287Z,93.40
2023-03-06T03:21:31.330Z,93.29
2023-03-06T03:22:31.322Z,93.29
2023-03-06T03:23:31.347Z,93.08
2023-03-06T03:24:31.391Z,93.08
2023-03-06T03:25:31.379Z,93.19
2023-03-06T03:26:31.415Z,92.88
2023-03-06T03:27:31.412Z,92.88
2023-03-06T03:28:31.418Z,93.08
2023-03-06T03:29:31.450Z,93.29
2023-03-06T03:30:31.473Z,92.98
2023-03-06T03:31:31.556Z,92.88
2023-03-06T03:32:31.540Z,93.13
2023-03-06T03:33:31.519Z,93.44
2023-03-06T03:34:31.539Z,93.65
2023-03-06T03:35:31.579Z,93.61
2023-03-06T03:36:31.605Z,93.92
2023-03-06T03:37:31.601Z,93.82
2023-03-06T03:38:31.622Z,93.92
2023-03-06T03:39:31.636Z,94.02
2023-03-06T03:40:31.652Z,93.61
2023-03-06T03:41:31.689Z,93.50
2023-03-06T03:42:31.693Z,93.29
2023-03-06T03:43:31.700Z,93.19
2023-03-06T03:44:31.729Z,93.08
2023-03-06T03:45:31.741Z,92.98
2023-03-06T03:46:31.850Z,92.88
2023-03-06T03:47:31.808Z,92.88
2023-03-06T03:48:31.811Z,92.98
2023-03-06T03:49:31.813Z,93.40
2023-03-06T03:50:31.838Z,93.50
2023-03-06T03:51:31.884Z,93.08
2023-03-06T03:52:31.878Z,93.29
2023-03-06T03:53:31.903Z,92.88
2023-03-06T03:54:31.911Z,92.77
2023-03-06T03:55:31.921Z,92.66
2023-03-06T03:56:31.965Z,92.92
2023-03-06T03:57:31.957Z,93.02
2023-03-06T03:58:31.982Z,93.13
2023-03-06T03:59:32.000Z,93.33
2023-03-06T04:00:32.025Z,93.33
2023-03-06T04:01:32.098Z,93.23
2023-03-06T04:02:32.064Z,93.23
2023-03-06T04:03:32.068Z,93.13
2023-03-06T04:04:32.164Z,92.92
2023-03-06T04:05:32.098Z,92.92
2023-03-06T04:06:32.128Z,92.71
2023-03-06T04:07:32.136Z,92.71
2023-03-06T04:08:32.160Z,92.82
2023-03-06T04:09:32.176Z,92.82
2023-03-06T04:10:32.190Z,92.82
2023-03-06T04:11:32.203Z,93.02
2023-03-06T04:12:32.225Z,93.02
2023-03-06T04:13:32.235Z,93.02
2023-03-06T04:14:32.259Z,93.23
2023-03-06T04:15:32.272Z,93.33
2023-03-06T04:16:32.321Z,93.23
2023-03-06T04:17:32.301Z,93.02
2023-03-06T04:18:32.326Z,92.92
2023-03-06T04:19:32.335Z,92.82
2023-03-06T04:20:32.360Z,92.71
2023-03-06T04:21:32.373Z,92.71
2023-03-06T04:22:32.389Z,92.71
2023-03-06T04:23:32.415Z,92.71
2023-03-06T04:24:32.430Z,92.71
2023-03-06T04:25:32.455Z,92.71
2023-03-06T04:26:32.479Z,92.82
2023-03-06T04:27:32.466Z,92.71
2023-03-06T04:28:32.490Z,92.71
2023-03-06T04:29:32.513Z,92.60
2023-03-06T04:30:32.545Z,92.60
2023-03-06T04:31:32.600Z,92.60
2023-03-06T04:32:32.620Z,92.71
2023-03-06T04:33:32.595Z,92.92
2023-03-06T04:34:32.609Z,93.13
2023-03-06T04:35:32.635Z,92.92
2023-03-06T04:36:32.689Z,92.82
2023-03-06T04:37:32.661Z,92.82
2023-03-06T04:38:32.753Z,92.82
2023-03-06T04:39:32.700Z,92.92
2023-03-06T04:40:32.729Z,93.13
2023-03-06T04:41:32.759Z,93.13
2023-03-06T04:42:32.763Z,93.33
2023-03-06T04:43:32.796Z,93.23
2023-03-06T04:44:32.802Z,93.23
2023-03-06T04:45:32.856Z,93.33
2023-03-06T04:46:32.854Z,93.23
2023-03-06T04:47:32.843Z,93.23
2023-03-06T04:48:32.874Z,93.13
2023-03-06T04:49:32.882Z,93.13
2023-03-06T04:50:32.910Z,93.23
2023-03-06T04:51:32.944Z,93.23
2023-03-06T04:52:32.942Z,93.13
2023-03-06T04:53:32.950Z,93.02
2023-03-06T04:54:32.974Z,92.92
2023-03-06T04:55:32.987Z,92.92
2023-03-06T04:56:33.018Z,92.60
2023-03-06T04:57:33.009Z,92.60
2023-03-06T04:58:33.036Z,92.82
2023-03-06T04:59:33.049Z,92.92
2023-03-06T05:00:33.079Z,93.13
2023-03-06T05:01:33.105Z,93.13
2023-03-06T05:02:33.148Z,93.23
2023-03-06T05:03:33.133Z,93.59
2023-03-06T05:04:33.154Z,93.76
2023-03-06T05:05:33.177Z,94.01
2023-03-06T05:06:33.206Z,94.01
2023-03-06T05:07:33.196Z,94.11
2023-03-06T05:08:33.223Z,94.11
2023-03-06T05:09:33.231Z,94.11
2023-03-06T05:10:33.265Z,94.11
2023-03-06T05:11:33.288Z,94.11
2023-03-06T05:12:33.285Z,94.11
2023-03-06T05:13:33.302Z,94.11
2023-03-06T05:14:33.351Z,94.11
2023-03-06T05:15:33.341Z,94.01
2023-03-06T05:16:33.439Z,94.01
2023-03-06T05:17:33.380Z,94.01
2023-03-06T05:18:33.420Z,93.90
2023-03-06T05:19:33.416Z,94.01
2023-03-06T05:20:33.443Z,94.01
2023-03-06T05:21:33.474Z,94.11
2023-03-06T05:22:33.474Z,94.01
2023-03-06T05:23:33.482Z,94.01
2023-03-06T05:24:33.507Z,94.01
2023-03-06T05:25:33.516Z,94.01
2023-03-06T05:26:33.563Z,93.96
2023-03-06T05:27:33.553Z,94.07
2023-03-06T05:28:33.584Z,94.27
2023-03-06T05:29:33.597Z,94.17
2023-03-06T05:30:33.623Z,94.07
2023-03-06T05:31:33.706Z,93.76
2023-03-06T05:32:35.580Z,93.80
2023-03-06T05:33:33.672Z,93.80
2023-03-06T05:34:33.706Z,93.80
2023-03-06T05:35:33.731Z,93.86
2023-03-06T05:36:33.750Z,93.86
2023-03-06T05:37:33.758Z,93.86
2023-03-06T05:38:33.758Z,93.76
2023-03-06T05:39:33.775Z,93.76
2023-03-06T05:40:33.800Z,93.90
2023-03-06T05:41:33.833Z,94.01
2023-03-06T05:42:33.840Z,94.11
2023-03-06T05:43:33.857Z,94.42
2023-03-06T05:44:33.877Z,94.53
2023-03-06T05:45:33.902Z,94.74
2023-03-06T05:46:33.938Z,94.74
2023-03-06T05:47:33.925Z,94.95
2023-03-06T05:48:33.947Z,95.21
2023-03-06T05:49:33.962Z,95.21
2023-03-06T05:50:33.990Z,95.01
2023-03-06T05:51:34.025Z,94.70
2023-03-06T05:52:34.024Z,94.70
2023-03-06T05:53:34.027Z,94.70
2023-03-06T05:54:34.053Z,94.38
2023-03-06T05:55:34.068Z,94.23
2023-03-06T05:56:34.100Z,94.27
2023-03-06T05:57:34.115Z,94.27
2023-03-06T05:58:34.116Z,94.17
2023-03-06T05:59:34.124Z,94.17
2023-03-06T06:00:34.156Z,94.17
2023-03-06T06:01:34.187Z,94.07
2023-03-06T06:02:34.220Z,93.86
2023-03-06T06:03:34.257Z,93.86
2023-03-06T06:04:34.232Z,94.07
2023-03-06T06:05:34.224Z,94.07
2023-03-06T06:06:34.273Z,93.96
2023-03-06T06:07:34.263Z,94.07
2023-03-06T06:08:34.285Z,93.82
2023-03-06T06:09:34.304Z,93.92
2023-03-06T06:10:34.326Z,93.92
2023-03-06T06:11:34.379Z,93.71
2023-03-06T06:12:34.364Z,93.71
2023-03-06T06:13:34.375Z,93.40
2023-03-06T06:14:34.394Z,93.29
2023-03-06T06:15:34.446Z,93.19
2023-03-06T06:16:34.458Z,93.29
2023-03-06T06:17:34.444Z,93.40
2023-03-06T06:18:34.466Z,93.40
2023-03-06T06:19:34.481Z,93.40
2023-03-06T06:20:34.508Z,93.19
2023-03-06T06:21:34.556Z,93.08
2023-03-06T06:22:34.536Z,92.88
2023-03-06T06:23:34.544Z,92.88
2023-03-06T06:24:34.568Z,92.77
2023-03-06T06:25:34.588Z,92.77
2023-03-06T06:26:34.650Z,92.77
2023-03-06T06:27:34.615Z,92.66
2023-03-06T06:28:34.641Z,92.35
2023-03-06T06:29:34.658Z,92.31
2023-03-06T06:30:34.681Z,92.14
2023-03-06T06:31:34.718Z,92.14
2023-03-06T06:32:34.791Z,92.25
2023-03-06T06:33:34.724Z,92.31
2023-03-06T06:34:34.757Z,92.31
2023-03-06T06:35:34.806Z,92.00
2023-03-06T06:36:34.793Z,92.10
2023-03-06T06:37:34.777Z,92.31
2023-03-06T06:38:34.802Z,92.41
2023-03-06T06:39:34.803Z,92.21
2023-03-06T06:40:34.832Z,92.10
2023-03-06T06:42:39.691Z,91.58
2023-03-06T06:43:34.887Z,91.79
2023-03-06T06:44:34.908Z,92.00
2023-03-06T06:45:35.020Z,91.89
2023-03-06T06:47:21.320Z,91.69
2023-03-06T06:47:35.023Z,91.58
2023-03-06T06:48:34.973Z,91.83
2023-03-06T06:49:34.993Z,91.83
2023-03-06T06:50:34.998Z,91.94
2023-03-06T06:51:35.032Z,92.21
2023-03-06T06:52:35.045Z,92.10
2023-03-06T06:53:35.045Z,92.10
2023-03-06T06:54:35.058Z,92.00
2023-03-06T06:55:35.072Z,91.79
2023-03-06T06:56:35.123Z,91.58
2023-03-06T06:57:35.118Z,91.69
2023-03-06T06:58:35.130Z,92.21
2023-03-06T06:59:35.155Z,92.00
2023-03-06T07:00:35.166Z,91.79
2023-03-06T07:01:35.279Z,91.79
2023-03-06T07:02:35.207Z,91.69
2023-03-06T07:03:35.279Z,91.79
2023-03-06T07:04:35.231Z,91.85
2023-03-06T07:05:35.264Z,91.64
2023-03-06T07:06:35.298Z,91.54
2023-03-06T07:07:35.280Z,91.54
2023-03-06T07:08:35.289Z,91.54
2023-03-06T07:09:35.298Z,91.43
2023-03-06T07:10:35.327Z,91.43
2023-03-06T07:11:35.388Z,91.22
2023-03-06T07:12:35.517Z,91.12
2023-03-06T07:13:35.373Z,91.02
2023-03-06T07:14:35.415Z,91.22
2023-03-06T07:15:35.481Z,91.33
2023-03-06T07:16:35.459Z,91.22
2023-03-06T07:17:35.435Z,91.02
2023-03-06T07:18:35.450Z,91.02
2023-03-06T07:19:35.463Z,90.70
2023-03-06T07:20:35.489Z,90.60
2023-03-06T07:21:35.521Z,90.81
2023-03-06T07:22:49.822Z,90.70
2023-03-06T07:23:35.545Z,90.70
2023-03-06T07:24:35.554Z,90.70
2023-03-06T07:25:35.565Z,90.81
2023-03-06T07:26:35.610Z,90.91
2023-03-06T07:27:35.644Z,91.02
2023-03-06T07:28:51.296Z,91.22
2023-03-06T07:29:35.679Z,90.91
2023-03-06T07:30:35.662Z,90.60
2023-03-06T07:31:35.720Z,90.35
2023-03-06T07:32:35.785Z,90.03
2023-03-06T07:33:35.699Z,89.93
2023-03-06T07:34:35.725Z,90.45
2023-03-06T07:35:35.809Z,90.35
2023-03-06T07:36:35.787Z,89.41
2023-03-06T07:37:35.784Z,89.31
2023-03-06T07:38:35.800Z,89.20
2023-03-06T07:39:35.813Z,89.10
2023-03-06T07:40:35.838Z,88.68
2023-03-06T07:41:35.882Z,88.37
2023-03-06T07:42:35.877Z,88.57
2023-03-06T07:43:35.878Z,88.68
2023-03-06T07:44:35.904Z,87.63
2023-03-06T07:45:35.920Z,87.32
2023-03-06T07:46:35.996Z,87.63
2023-03-06T07:47:35.943Z,88.16
2023-03-06T07:48:35.978Z,88.26
2023-03-06T07:49:35.992Z,88.32
2023-03-06T07:50:36.010Z,88.43
2023-03-06T07:51:36.078Z,88.12
2023-03-06T07:52:36.025Z,88.12
2023-03-06T07:53:36.070Z,88.64
2023-03-06T07:54:36.070Z,88.32
2023-03-06T07:55:36.091Z,88.53
2023-03-06T07:56:36.122Z,88.32
2023-03-06T07:57:36.148Z,87.91
2023-03-06T07:58:36.140Z,87.49
2023-03-06T07:59:36.159Z,87.70
2023-03-06T08:00:36.174Z,87.91
2023-03-06T08:01:36.297Z,87.97
2023-03-06T08:02:36.206Z,87.97
2023-03-06T08:03:36.279Z,87.87
2023-03-06T08:04:36.261Z,87.35
2023-03-06T08:05:36.263Z,87.14
2023-03-06T08:06:36.296Z,87.55
2023-03-06T08:07:36.295Z,87.45
2023-03-06T08:08:36.306Z,86.83
2023-03-06T08:09:36.333Z,86.30
2023-03-06T08:10:36.340Z,87.14
2023-03-06T08:11:36.392Z,86.20
2023-03-06T08:12:36.377Z,86.20
2023-03-06T08:13:36.404Z,86.61
2023-03-06T08:14:36.426Z,86.51
2023-03-06T08:15:36.446Z,86.93
2023-03-06T08:16:36.531Z,86.83
2023-03-06T08:17:36.482Z,87.04
2023-03-06T08:18:36.492Z,87.04
2023-03-06T08:19:36.498Z,86.93
2023-03-06T08:20:36.507Z,87.14
2023-03-06T08:21:36.565Z,87.04
2023-03-06T08:22:36.551Z,86.93
2023-03-06T08:23:36.558Z,86.61
2023-03-06T08:24:36.580Z,85.99
2023-03-06T08:25:36.595Z,85.89
2023-03-06T08:26:36.631Z,87.04
2023-03-06T08:27:36.622Z,86.72
2023-03-06T08:28:36.637Z,86.30
2023-03-06T08:29:36.666Z,86.51
2023-03-06T08:30:36.675Z,87.04
2023-03-06T08:31:36.873Z,86.61
2023-03-06T08:32:36.811Z,85.99
2023-03-06T08:33:36.761Z,85.89
2023-03-06T08:34:36.752Z,85.89
2023-03-06T08:35:36.815Z,86.47
2023-03-06T08:36:36.893Z,86.47
2023-03-06T08:37:36.884Z,86.47
2023-03-06T08:38:36.819Z,86.89
2023-03-06T08:39:36.845Z,87.41
2023-03-06T08:40:36.858Z,87.83
2023-03-06T08:41:36.912Z,86.16
2023-03-06T08:42:36.899Z,85.85
2023-03-06T08:43:36.915Z,85.74
2023-03-06T08:44:36.942Z,85.96
2023-03-06T08:45:37.076Z,85.74
2023-03-06T08:46:36.993Z,86.06
2023-03-06T08:47:36.978Z,86.27
2023-03-06T08:48:36.992Z,86.37
2023-03-06T08:49:37.027Z,86.27
2023-03-06T08:50:37.033Z,86.06
2023-03-06T08:51:37.091Z,86.33
2023-03-06T08:52:37.076Z,85.08
2023-03-06T08:53:43.253Z,84.98
2023-03-06T08:54:37.116Z,85.19
2023-03-06T08:55:37.122Z,85.71
2023-03-06T08:56:37.192Z,84.98
2023-03-06T08:57:37.151Z,84.66
2023-03-06T08:58:37.182Z,84.45
2023-03-06T08:59:37.182Z,84.45
2023-03-06T09:00:37.268Z,84.66
2023-03-06T09:01:37.347Z,84.66
2023-03-06T09:02:37.287Z,84.45
2023-03-06T09:03:37.251Z,85.04
2023-03-06T09:04:37.257Z,85.04
2023-03-06T09:05:37.280Z,85.04
2023-03-06T09:06:37.307Z,84.63
2023-03-06T09:07:37.335Z,84.52
2023-03-06T09:08:37.341Z,84.52
2023-03-06T09:09:37.362Z,85.00
2023-03-06T09:10:37.416Z,84.17
2023-03-06T09:11:37.391Z,83.86
2023-03-06T09:12:49.478Z,84.06
2023-03-06T09:13:37.425Z,84.48
2023-03-06T09:14:37.468Z,84.48
2023-03-06T09:15:37.470Z,84.27
2023-03-06T09:16:37.481Z,83.54
2023-03-06T09:17:37.564Z,83.86
2023-03-06T09:18:37.498Z,84.42
2023-03-06T09:19:37.520Z,83.90
2023-03-06T09:20:37.533Z,84.31
2023-03-06T09:21:37.559Z,84.52
2023-03-06T09:22:37.585Z,84.52
2023-03-06T09:23:37.600Z,84.52
2023-03-06T09:24:37.612Z,84.00
2023-03-06T09:25:37.632Z,84.52
2023-03-06T09:26:46.278Z,84.21
2023-03-06T09:27:37.699Z,84.00
2023-03-06T09:28:37.682Z,84.52
2023-03-06T09:29:37.707Z,83.86
2023-03-06T09:30:37.753Z,84.38
2023-03-06T09:31:37.747Z,83.86
2023-03-06T09:32:37.860Z,83.86
2023-03-06T09:33:37.777Z,84.17
2023-03-06T09:34:37.788Z,84.27
2023-03-06T09:35:37.845Z,83.75
2023-03-06T09:36:49.512Z,83.34
2023-03-06T09:37:37.868Z,83.75
2023-03-06T09:38:37.857Z,83.86
2023-03-06T09:39:37.882Z,83.96
2023-03-06T09:40:37.897Z,83.75
2023-03-06T09:41:37.920Z,83.72
2023-03-06T09:42:37.934Z,83.30
2023-03-06T09:43:37.954Z,82.57
2023-03-06T09:44:37.972Z,82.78
2023-03-06T09:45:37.992Z,82.26
2023-03-06T09:46:38.024Z,82.57
2023-03-06T09:47:38.060Z,83.30
2023-03-06T09:48:38.046Z,82.89
2023-03-06T09:49:38.063Z,81.84
2023-03-06T09:50:38.075Z,82.15
2023-03-06T09:51:38.103Z,82.89
2023-03-06T09:52:38.139Z,82.43
2023-03-06T09:53:38.137Z,82.53
2023-03-06T09:54:38.146Z,82.12
2023-03-06T09:55:38.177Z,81.60
2023-03-06T09:56:38.185Z,82.22
2023-03-06T09:57:38.238Z,81.29
2023-03-06T09:58:38.219Z,81.29
2023-03-06T09:59:38.245Z,80.98
2023-03-06T10:00:38.263Z,80.52
2023-03-06T10:01:38.272Z,81.87
2023-03-06T10:02:38.526Z,82.50
2023-03-06T10:03:38.302Z,81.87
2023-03-06T10:04:38.350Z,81.67
2023-03-06T10:05:38.340Z,80.94
2023-03-06T10:06:38.352Z,80.32
2023-03-06T10:07:38.392Z,80.42
2023-03-06T10:08:38.384Z,80.94
2023-03-06T10:09:38.410Z,79.90
2023-03-06T10:10:38.418Z,79.94
2023-03-06T10:11:38.445Z,79.72
2023-03-06T10:12:38.479Z,79.72
2023-03-06T10:13:38.487Z,80.56
2023-03-06T10:14:38.497Z,80.04
2023-03-06T10:15:38.588Z,80.15
2023-03-06T10:16:38.534Z,80.25
2023-03-06T10:17:38.600Z,78.58
2023-03-06T10:18:38.574Z,79.21
2023-03-06T10:19:38.595Z,80.25
2023-03-06T10:20:38.600Z,79.72
2023-03-06T10:21:38.630Z,79.83
2023-03-06T10:22:38.700Z,80.35
2023-03-06T10:23:38.661Z,80.46
2023-03-06T10:24:38.666Z,80.25
2023-03-06T10:25:38.690Z,79.48
2023-03-06T10:26:38.761Z,80.11
2023-03-06T10:27:38.743Z,78.44
2023-03-06T10:28:38.743Z,78.96
2023-03-06T10:29:39.284Z,79.17
2023-03-06T10:30:38.772Z,78.13
2023-03-06T10:31:38.793Z,77.72
2023-03-06T10:32:48.233Z,76.89
2023-03-06T10:33:38.857Z,78.13
2023-03-06T10:34:38.843Z,76.99
2023-03-06T10:35:38.860Z,77.78
2023-03-06T10:36:38.864Z,76.85
2023-03-06T10:37:38.891Z,77.06
2023-03-06T10:38:38.911Z,76.12
2023-03-06T10:39:38.961Z,76.92
2023-03-06T10:40:38.932Z,76.29
2023-03-06T10:41:38.957Z,76.26
2023-03-06T10:42:38.993Z,75.95
2023-03-06T10:43:39.006Z,77.20
2023-03-06T10:44:39.003Z,75.64
2023-03-06T10:45:48.893Z,74.29
2023-03-06T10:46:39.119Z,73.18
2023-03-06T10:47:39.066Z,72.25
2023-03-06T10:48:40.980Z,73.80
2023-03-06T10:49:39.100Z,73.70
2023-03-06T10:50:39.111Z,74.95
2023-03-06T10:51:39.149Z,74.01
2023-03-06T10:52:39.168Z,75.05
2023-03-06T10:53:39.176Z,72.97
2023-03-06T10:54:39.238Z,73.60
2023-03-06T10:55:39.214Z,73.28
2023-03-06T10:56:39.221Z,73.08
2023-03-06T10:57:39.272Z,73.15
2023-03-06T10:58:39.260Z,72.63
2023-03-06T10:59:39.289Z,72.22
2023-03-06T11:00:39.302Z,71.28
2023-03-06T11:01:39.408Z,71.11
2023-03-06T11:02:39.357Z,72.35
2023-03-06T11:03:39.357Z,73.39
2023-03-06T11:04:39.407Z,72.53
2023-03-06T11:05:39.388Z,72.32
2023-03-06T11:06:39.398Z,71.80
2023-03-06T11:07:39.433Z,72.63
2023-03-06T11:08:39.419Z,71.49
2023-03-06T11:09:39.443Z,72.42
2023-03-06T11:10:39.465Z,74.50
2023-03-06T11:11:39.475Z,73.57
2023-03-06T11:12:39.516Z,72.94
2023-03-06T11:13:39.535Z,72.84
2023-03-06T11:14:39.524Z,73.22
2023-03-06T11:15:39.553Z,74.08
2023-03-06T11:16:39.572Z,73.15
2023-03-06T11:17:39.614Z,73.25
2023-03-06T11:18:39.610Z,73.08
2023-03-06T11:19:39.631Z,73.46
2023-03-06T11:20:50.965Z,73.77
2023-03-06T11:21:39.683Z,73.05
2023-03-06T11:22:39.722Z,73.88
2023-03-06T11:23:39.706Z,72.53
2023-03-06T11:24:39.714Z,72.91
2023-03-06T11:25:39.740Z,73.32
2023-03-06T11:26:39.750Z,73.01
2023-03-06T11:27:39.791Z,72.70
2023-03-06T11:28:39.784Z,72.28
2023-03-06T11:29:39.859Z,72.18
2023-03-06T11:30:39.825Z,72.08
2023-03-06T11:31:39.943Z,72.77
2023-03-06T11:32:39.905Z,71.63
2023-03-06T11:33:39.894Z,71.56
2023-03-06T11:34:39.905Z,72.67
2023-03-06T11:35:39.925Z,72.15
2023-03-06T11:36:39.926Z,71.63
2023-03-06T11:37:39.954Z,71.53
2023-03-06T11:38:39.974Z,71.42
2023-03-06T11:39:39.989Z,72.36
2023-03-06T11:40:40.005Z,72.25
2023-03-06T11:41:40.020Z,72.91
2023-03-06T11:42:40.051Z,72.28
2023-03-06T11:43:40.050Z,71.04
2023-03-06T11:44:40.076Z,71.14
2023-03-06T11:45:40.087Z,72.56
2023-03-06T11:46:40.135Z,71.94
2023-03-06T11:47:40.157Z,73.18
2023-03-06T11:48:40.137Z,71.63
2023-03-06T11:49:40.159Z,71.70
2023-03-06T11:50:40.171Z,71.49
2023-03-06T11:51:40.196Z,71.39
2023-03-06T11:52:40.225Z,69.94
2023-03-06T11:53:40.224Z,68.59
2023-03-06T11:54:40.233Z,68.59
2023-03-06T11:55:40.256Z,68.59
2023-03-06T11:56:40.274Z,68.46
2023-03-06T11:57:40.323Z,69.18
2023-03-06T11:58:40.318Z,68.77
2023-03-06T11:59:40.337Z,68.04
2023-03-06T12:00:40.344Z,68.98
2023-03-06T12:01:40.416Z,68.63
2023-03-06T12:02:40.393Z,68.63
2023-03-06T12:03:40.403Z,68.84
2023-03-06T12:04:40.413Z,69.46
2023-03-06T12:05:40.526Z,69.46
2023-03-06T12:06:40.452Z,70.39
2023-03-06T12:07:40.483Z,70.29
2023-03-06T12:08:40.488Z,69.56
2023-03-06T12:09:40.499Z,69.04
2023-03-06T12:10:40.519Z,70.11
2023-03-06T12:11:40.586Z,69.39
2023-03-06T12:12:40.571Z,69.90
2023-03-06T12:13:40.563Z,69.29
2023-03-06T12:14:40.585Z,70.94
2023-03-06T12:15:40.599Z,69.77
2023-03-06T12:16:40.701Z,68.91
2023-03-06T12:17:40.636Z,69.22
2023-03-06T12:18:40.660Z,68.08
2023-03-06T12:19:40.668Z,68.36
2023-03-06T12:20:40.695Z,68.26
2023-03-06T12:21:40.709Z,68.26
2023-03-06T12:22:40.741Z,68.64
2023-03-06T12:23:40.755Z,67.50
2023-03-06T12:24:40.754Z,67.50
2023-03-06T12:25:40.783Z,66.16
2023-03-06T12:26:40.780Z,66.16
2023-03-06T12:27:40.825Z,66.39
2023-03-06T12:28:40.813Z,66.09
2023-03-06T12:29:40.852Z,66.09
2023-03-06T12:30:40.858Z,66.81
2023-03-06T12:31:40.921Z,65.99
2023-03-06T12:32:40.933Z,65.47
2023-03-06T12:33:40.896Z,65.67
2023-03-06T12:34:40.920Z,66.29
2023-03-06T12:35:40.957Z,65.57
2023-03-06T12:36:40.954Z,66.26
2023-03-06T12:37:40.984Z,65.99
2023-03-06T12:38:40.979Z,65.78
2023-03-06T12:39:40.990Z,65.67
2023-03-06T12:40:41.013Z,66.09
2023-03-06T12:41:41.024Z,65.88
2023-03-06T12:42:41.068Z,65.05
2023-03-06T12:43:41.062Z,65.67
2023-03-06T12:44:41.106Z,65.39
2023-03-06T12:45:41.172Z,64.98
2023-03-06T12:46:41.109Z,65.08
2023-03-06T12:47:41.126Z,65.50
2023-03-06T12:48:41.143Z,66.53
2023-03-06T12:49:41.142Z,66.42
2023-03-06T12:50:41.160Z,67.46
2023-03-06T12:51:41.178Z,66.63
2023-03-06T12:52:41.198Z,67.05
2023-03-06T12:53:41.222Z,66.53